Time;durP1;ratioP1;P1;durP2;ratioP2;P2;SDS_P1;SDS_P2;PMS_P1;PMS_P2;Temp;Humidity;BMP_temperature;BMP_pressure;BME280_temperature;BME280_humidity;BME280_pressure;Samples;Min_cycle;Max_cycle;Signal;HPM_P1;HPM_P2
2022/03/24 00:00:28;;;;;;;80.78;59.60;;;7.10;99.90;;;;;;5036214;28;20055;-78
2022/03/24 00:02:54;;;;;;;85.53;62.60;;;7.10;99.90;;;;;;5038364;28;20036;-79
2022/03/24 00:05:20;;;;;;;85.30;61.45;;;7.10;99.90;;;;;;5022283;28;20087;-78
2022/03/24 00:07:46;;;;;;;86.00;63.25;;;7.00;99.90;;;;;;5036502;28;20041;-77
2022/03/24 00:10:12;;;;;;;81.63;59.55;;;7.00;99.90;;;;;;5037118;28;20068;-79
2022/03/24 00:12:39;;;;;;;81.38;60.78;;;7.00;99.90;;;;;;5054555;28;20425;-81
2022/03/24 00:15:05;;;;;;;83.03;59.80;;;7.00;99.90;;;;;;5054583;28;20052;-78
2022/03/24 00:17:32;;;;;;;87.75;62.85;;;7.00;99.90;;;;;;5054253;28;20037;-78
2022/03/24 00:19:58;;;;;;;87.57;61.67;;;7.00;99.90;;;;;;5054532;28;20066;-79
2022/03/24 00:22:24;;;;;;;91.78;64.00;;;7.00;99.90;;;;;;5040753;28;20335;-79
2022/03/24 00:24:49;;;;;;;90.80;61.60;;;6.90;99.90;;;;;;5040333;28;20033;-78
2022/03/24 00:27:15;;;;;;;86.20;62.25;;;6.90;99.90;;;;;;5057429;28;20045;-78
2022/03/24 00:29:42;;;;;;;83.35;60.67;;;6.90;99.90;;;;;;5057911;28;20143;-79
2022/03/24 00:32:08;;;;;;;92.70;64.90;;;6.90;99.90;;;;;;5057934;28;20037;-79
2022/03/24 00:34:33;;;;;;;89.97;65.10;;;6.90;99.90;;;;;;5024420;28;20079;-80
2022/03/24 00:36:59;;;;;;;88.30;65.43;;;6.90;99.90;;;;;;5040157;28;20513;-79
2022/03/24 00:39:25;;;;;;;92.70;66.00;;;6.80;99.90;;;;;;5057781;28;20446;-78
2022/03/24 00:41:51;;;;;;;92.93;66.25;;;6.90;99.90;;;;;;5057533;28;20049;-78
2022/03/24 00:44:16;;;;;;;92.43;67.03;;;6.90;99.90;;;;;;5040570;28;20055;-78
2022/03/24 00:46:42;;;;;;;91.25;66.20;;;6.90;99.90;;;;;;5040617;28;20040;-79
2022/03/24 00:49:07;;;;;;;99.40;71.35;;;6.90;99.90;;;;;;5040302;28;20362;-79
2022/03/24 00:51:33;;;;;;;100.07;69.70;;;6.90;99.90;;;;;;5057923;28;20477;-78
2022/03/24 00:53:59;;;;;;;100.70;71.60;;;6.90;99.90;;;;;;5040414;28;20113;-79
2022/03/24 00:56:25;;;;;;;102.15;72.93;;;7.00;99.90;;;;;;5057423;28;20092;-80
2022/03/24 00:58:51;;;;;;;101.50;71.60;;;6.90;99.90;;;;;;5058000;28;20383;-77
2022/03/24 01:01:16;;;;;;;103.63;73.47;;;7.00;99.90;;;;;;5057897;28;20438;-79
2022/03/24 01:03:43;;;;;;;111.15;75.00;;;7.00;99.90;;;;;;5040086;28;20048;-79
2022/03/24 01:06:10;;;;;;;106.68;73.70;;;7.00;99.90;;;;;;5057138;28;20049;-81
2022/03/24 01:08:36;;;;;;;102.93;72.05;;;7.00;99.90;;;;;;5057489;28;20442;-79
2022/03/24 01:11:05;;;;;;;101.07;73.88;;;7.00;99.90;;;;;;5039870;28;20053;-79
2022/03/24 01:13:32;;;;;;;104.40;75.05;;;7.00;99.90;;;;;;5057094;28;20041;-79
2022/03/24 01:15:58;;;;;;;103.35;73.95;;;6.90;99.90;;;;;;5057243;28;20116;-80
2022/03/24 01:18:23;;;;;;;101.53;71.32;;;6.90;99.90;;;;;;5040107;28;20146;-80
2022/03/24 01:20:49;;;;;;;103.65;72.32;;;6.90;99.90;;;;;;5057206;28;20037;-80
2022/03/24 01:23:15;;;;;;;101.97;73.25;;;6.90;99.90;;;;;;5039557;28;20465;-78
2022/03/24 01:25:42;;;;;;;103.88;72.75;;;6.80;99.90;;;;;;5056894;28;20136;-79
2022/03/24 01:28:09;;;;;;;100.05;74.70;;;6.70;99.90;;;;;;5056889;28;20056;-80
2022/03/24 01:30:38;;;;;;;105.25;75.95;;;6.80;99.90;;;;;;5057009;28;20037;-79
2022/03/24 01:33:04;;;;;;;108.85;76.20;;;6.80;99.90;;;;;;5056176;28;20047;-79
2022/03/24 01:35:29;;;;;;;106.30;75.22;;;6.70;99.90;;;;;;5039362;28;20057;-77
2022/03/24 01:37:55;;;;;;;103.00;74.07;;;6.70;99.90;;;;;;5056578;28;20045;-78
2022/03/24 01:40:20;;;;;;;107.82;76.97;;;6.70;99.90;;;;;;5056562;28;20044;-79
2022/03/24 01:42:47;;;;;;;112.15;76.93;;;6.70;99.90;;;;;;5056653;28;20445;-80
2022/03/24 01:45:14;;;;;;;106.45;75.10;;;6.70;99.90;;;;;;5056623;28;20131;-78
2022/03/24 01:47:40;;;;;;;110.28;76.07;;;6.70;99.90;;;;;;5039232;28;20053;-80
2022/03/24 01:50:08;;;;;;;112.13;74.40;;;6.60;99.90;;;;;;5039548;28;20071;-79
2022/03/24 01:52:33;;;;;;;102.57;73.15;;;6.60;99.90;;;;;;5056379;28;20055;-79
2022/03/24 01:55:00;;;;;;;104.60;73.53;;;6.60;99.90;;;;;;5056435;28;20044;-78
2022/03/24 01:57:27;;;;;;;114.00;81.40;;;6.60;99.90;;;;;;5022433;28;20045;-80
2022/03/24 01:59:54;;;;;;;121.90;81.72;;;6.60;99.90;;;;;;5056799;28;20045;-80
2022/03/24 02:02:20;;;;;;;114.45;78.45;;;6.60;99.90;;;;;;5056560;28;20048;-80
2022/03/24 02:04:47;;;;;;;112.65;79.60;;;6.60;99.90;;;;;;5038988;28;20049;-79
2022/03/24 02:07:13;;;;;;;116.35;83.50;;;6.60;99.90;;;;;;5022196;28;20044;-77
2022/03/24 02:09:39;;;;;;;113.03;79.20;;;6.50;99.90;;;;;;5038410;28;20457;-79
2022/03/24 02:12:07;;;;;;;117.50;81.10;;;6.50;99.90;;;;;;5038832;28;20425;-79
2022/03/24 02:14:34;;;;;;;109.28;78.00;;;6.40;99.90;;;;;;5052918;28;20099;-80
2022/03/24 02:17:00;;;;;;;118.10;81.68;;;6.40;99.90;;;;;;5056619;28;20106;-78
2022/03/24 02:19:27;;;;;;;117.60;82.40;;;6.40;99.90;;;;;;5055835;28;20323;-78
2022/03/24 02:21:55;;;;;;;124.15;85.75;;;6.40;99.90;;;;;;5055902;28;20124;-77
2022/03/24 02:24:23;;;;;;;123.50;84.22;;;6.40;99.90;;;;;;5056045;28;20055;-79
2022/03/24 02:26:49;;;;;;;125.63;85.43;;;6.40;99.90;;;;;;5055796;28;20048;-78
2022/03/24 02:29:17;;;;;;;127.28;87.55;;;6.30;99.90;;;;;;5055959;28;20074;-78
2022/03/24 02:31:45;;;;;;;117.43;80.88;;;6.40;99.90;;;;;;5056174;28;20052;-78
2022/03/24 02:36:58;;;;;;;124.30;84.22;;;6.30;99.90;;;;;;5055957;28;20088;-79
2022/03/24 02:39:23;;;;;;;120.70;81.57;;;6.40;99.90;;;;;;5038538;28;20049;-80
2022/03/24 02:41:54;;;;;;;122.82;84.38;;;6.30;99.90;;;;;;5056049;28;20045;-81
2022/03/24 02:44:25;;;;;;;123.47;83.40;;;6.30;99.90;;;;;;5037517;28;20040;-80
2022/03/24 02:46:53;;;;;;;119.80;80.68;;;6.30;99.90;;;;;;5021239;28;20044;-79
2022/03/24 02:49:23;;;;;;;126.80;85.20;;;6.30;99.90;;;;;;5038334;28;20038;-79
2022/03/24 02:51:50;;;;;;;127.97;82.80;;;6.30;99.90;;;;;;5038113;28;20041;-79
2022/03/24 02:54:17;;;;;;;120.75;82.97;;;6.30;99.90;;;;;;5037785;28;20045;-80
2022/03/24 02:56:43;;;;;;;122.03;83.40;;;6.30;99.90;;;;;;5055475;28;20040;-79
2022/03/24 02:59:10;;;;;;;128.90;84.95;;;6.30;99.90;;;;;;5055367;28;20055;-79
2022/03/24 03:01:41;;;;;;;121.18;81.65;;;6.20;99.90;;;;;;5037417;28;20049;-78
2022/03/24 03:04:08;;;;;;;128.43;83.32;;;6.20;99.90;;;;;;5020776;28;20133;-79
2022/03/24 03:06:34;;;;;;;124.82;85.63;;;6.10;99.90;;;;;;5055165;28;20048;-78
2022/03/24 03:09:01;;;;;;;124.63;82.82;;;6.10;99.90;;;;;;5054744;28;20120;-77
2022/03/24 03:11:26;;;;;;;128.50;84.47;;;6.00;99.90;;;;;;5037409;28;20051;-81
2022/03/24 03:13:52;;;;;;;125.47;83.10;;;6.10;99.90;;;;;;5037233;28;20037;-78
2022/03/24 03:16:18;;;;;;;126.60;84.35;;;6.10;99.90;;;;;;5037446;28;20037;-77
2022/03/24 03:18:44;;;;;;;113.82;76.47;;;6.10;99.90;;;;;;5054934;28;20033;-78
2022/03/24 03:21:10;;;;;;;125.57;82.97;;;6.10;99.90;;;;;;5055115;28;20041;-78
2022/03/24 03:23:38;;;;;;;128.85;84.03;;;6.00;99.90;;;;;;5037338;28;20493;-81
2022/03/24 03:26:08;;;;;;;121.45;81.97;;;5.90;99.90;;;;;;5055004;28;20397;-79
2022/03/24 03:28:34;;;;;;;130.77;86.65;;;5.90;99.90;;;;;;5054639;28;20040;-78
2022/03/24 03:31:00;;;;;;;124.35;81.25;;;5.90;99.90;;;;;;5054824;28;20048;-79
2022/03/24 03:33:26;;;;;;;118.03;78.05;;;5.90;99.90;;;;;;5037340;28;20044;-79
2022/03/24 03:35:52;;;;;;;117.32;82.53;;;5.90;99.90;;;;;;5037084;28;20476;-80
2022/03/24 03:38:19;;;;;;;124.53;81.55;;;5.90;99.90;;;;;;5037222;28;20360;-78
2022/03/24 03:40:47;;;;;;;124.78;81.90;;;5.90;99.90;;;;;;5037267;28;20044;-77
2022/03/24 03:43:14;;;;;;;126.35;84.20;;;5.90;99.90;;;;;;5036631;28;20033;-79
2022/03/24 03:45:41;;;;;;;122.43;82.38;;;5.90;99.90;;;;;;5054653;28;20060;-77
2022/03/24 03:48:07;;;;;;;123.28;82.65;;;5.90;99.90;;;;;;5037312;28;20127;-79
2022/03/24 03:50:32;;;;;;;115.50;74.97;;;5.80;99.90;;;;;;5037441;28;20186;-79
2022/03/24 03:52:58;;;;;;;120.93;80.53;;;5.90;99.90;;;;;;5037549;28;20037;-81
2022/03/24 03:55:24;;;;;;;122.97;80.10;;;5.90;99.90;;;;;;5038331;28;20117;-81
2022/03/24 03:57:49;;;;;;;121.28;79.40;;;5.80;99.90;;;;;;5021499;28;20045;-79
2022/03/24 04:03:03;;;;;;;118.30;77.77;;;5.80;99.90;;;;;;5040675;28;20057;-79
2022/03/24 04:05:30;;;;;;;115.15;77.25;;;5.80;99.90;;;;;;5058624;28;20062;-78
2022/03/24 04:07:57;;;;;;;118.20;78.43;;;5.80;99.90;;;;;;5040887;28;20427;-78
2022/03/24 04:10:22;;;;;;;121.90;81.40;;;5.80;99.90;;;;;;5058234;28;20095;-79
2022/03/24 04:12:50;;;;;;;117.63;79.05;;;5.70;99.90;;;;;;5058308;28;20049;-79
2022/03/24 04:15:16;;;;;;;119.13;77.25;;;5.70;99.90;;;;;;5040932;28;20052;-78
2022/03/24 04:17:42;;;;;;;120.35;79.70;;;5.60;99.90;;;;;;5040350;28;20037;-78
2022/03/24 04:20:08;;;;;;;116.13;76.72;;;5.70;99.90;;;;;;5041030;28;20442;-78
2022/03/24 04:22:35;;;;;;;117.40;78.70;;;5.70;99.90;;;;;;5058585;28;20052;-78
2022/03/24 04:25:01;;;;;;;111.88;76.25;;;5.70;99.90;;;;;;5040326;28;20048;-79
2022/03/24 04:27:26;;;;;;;119.95;75.88;;;5.60;99.90;;;;;;5058607;28;20334;-81
2022/03/24 04:29:52;;;;;;;119.68;79.63;;;5.60;99.90;;;;;;5040747;28;20124;-78
2022/03/24 04:32:18;;;;;;;123.35;77.40;;;5.60;99.90;;;;;;5058195;28;20049;-78
2022/03/24 04:34:45;;;;;;;119.70;80.43;;;5.50;99.90;;;;;;5058009;28;20056;-78
2022/03/24 04:37:11;;;;;;;110.72;74.68;;;5.60;99.90;;;;;;5057526;28;20052;-78
2022/03/24 04:39:36;;;;;;;115.53;75.95;;;5.50;99.90;;;;;;5023859;28;20118;-77
2022/03/24 04:42:05;;;;;;;113.97;77.35;;;5.50;99.90;;;;;;5041111;28;20041;-78
2022/03/24 04:44:31;;;;;;;109.68;73.88;;;5.50;99.90;;;;;;5054921;28;20048;-81
2022/03/24 04:46:57;;;;;;;115.57;76.68;;;5.50;99.90;;;;;;5040305;28;20048;-78
2022/03/24 04:49:22;;;;;;;122.45;77.38;;;5.50;99.90;;;;;;5057928;28;20320;-79
2022/03/24 04:51:48;;;;;;;120.63;77.72;;;5.40;99.90;;;;;;5039996;28;20187;-78
2022/03/24 04:54:14;;;;;;;114.97;75.40;;;5.50;99.90;;;;;;5057671;28;20033;-78
2022/03/24 04:56:40;;;;;;;110.80;72.43;;;5.50;99.90;;;;;;5057475;28;20041;-80
2022/03/24 04:59:05;;;;;;;112.97;76.10;;;5.50;99.90;;;;;;5057540;28;20059;-79
2022/03/24 05:01:31;;;;;;;110.30;74.07;;;5.50;99.90;;;;;;5040213;28;20103;-80
2022/03/24 05:03:57;;;;;;;118.22;76.85;;;5.50;99.90;;;;;;5039974;28;20486;-79
2022/03/24 05:06:23;;;;;;;120.63;77.15;;;5.50;99.90;;;;;;5057476;28;20072;-78
2022/03/24 05:08:50;;;;;;;113.50;71.65;;;5.40;99.90;;;;;;5039078;28;20051;-81
2022/03/24 05:11:15;;;;;;;110.97;73.03;;;5.40;99.90;;;;;;5039949;28;20102;-79
2022/03/24 05:13:41;;;;;;;118.72;76.32;;;5.40;99.90;;;;;;5039598;28;20451;-79
2022/03/24 05:16:07;;;;;;;118.38;74.03;;;5.40;99.90;;;;;;5056905;28;20045;-79
2022/03/24 05:18:33;;;;;;;110.22;72.70;;;5.40;99.90;;;;;;5039862;28;20033;-78
2022/03/24 05:20:58;;;;;;;111.35;72.57;;;5.40;99.90;;;;;;5057087;28;20037;-77
2022/03/24 05:23:24;;;;;;;110.30;69.97;;;5.40;99.90;;;;;;5056963;28;20044;-78
2022/03/24 05:25:49;;;;;;;114.60;72.38;;;5.40;99.90;;;;;;5039699;28;20048;-79
2022/03/24 05:28:16;;;;;;;113.05;73.43;;;5.30;99.90;;;;;;5056956;28;20439;-78
2022/03/24 05:30:42;;;;;;;112.07;73.95;;;5.30;99.90;;;;;;5056763;28;20041;-79
2022/03/24 05:33:08;;;;;;;111.45;74.22;;;5.30;99.90;;;;;;5039726;28;20052;-79
2022/03/24 05:35:35;;;;;;;110.90;72.95;;;5.30;99.90;;;;;;5039044;28;20068;-78
2022/03/24 05:38:04;;;;;;;120.07;77.28;;;5.30;99.90;;;;;;5056408;28;20094;-79
2022/03/24 05:40:30;;;;;;;110.03;68.78;;;5.30;99.90;;;;;;5056498;28;20045;-81
2022/03/24 05:42:56;;;;;;;115.85;73.38;;;5.30;99.90;;;;;;5056543;28;20037;-78
2022/03/24 05:45:22;;;;;;;119.82;76.38;;;5.30;99.90;;;;;;5056718;28;20041;-79
2022/03/24 05:47:47;;;;;;;112.07;71.97;;;5.30;99.90;;;;;;5038796;28;20439;-78
2022/03/24 05:50:13;;;;;;;114.85;72.40;;;5.30;99.90;;;;;;5056475;28;20037;-79
2022/03/24 05:52:40;;;;;;;111.05;70.50;;;5.30;99.90;;;;;;5056363;28;20045;-78
2022/03/24 05:55:06;;;;;;;118.72;73.97;;;5.30;99.90;;;;;;5022485;28;20041;-78
2022/03/24 05:57:32;;;;;;;115.47;73.28;;;5.30;99.90;;;;;;5056336;28;20110;-79
2022/03/24 05:59:58;;;;;;;110.05;70.13;;;5.30;99.90;;;;;;5056176;28;20053;-79
2022/03/24 06:02:24;;;;;;;110.28;70.72;;;5.30;99.90;;;;;;5054918;28;20051;-78
2022/03/24 06:04:51;;;;;;;108.38;69.00;;;5.40;99.90;;;;;;5037790;28;20047;-78
2022/03/24 06:07:17;;;;;;;107.70;69.20;;;5.40;99.90;;;;;;5054738;28;20056;-79
2022/03/24 06:09:44;;;;;;;116.72;74.30;;;5.50;99.90;;;;;;5037766;28;20041;-79
2022/03/24 06:12:10;;;;;;;118.70;74.70;;;5.50;99.90;;;;;;5035445;28;20049;-80
2022/03/24 06:14:42;;;;;;;113.70;71.55;;;5.50;99.90;;;;;;5034948;28;20095;-79
2022/03/24 06:17:10;;;;;;;116.00;70.70;;;5.50;99.90;;;;;;5034894;28;20052;-81
2022/03/24 06:19:36;;;;;;;114.72;72.22;;;5.50;99.90;;;;;;5035496;28;20124;-80
2022/03/24 06:22:06;;;;;;;111.30;71.45;;;5.50;99.90;;;;;;5035757;28;20041;-76
2022/03/24 06:24:32;;;;;;;111.57;69.72;;;5.50;99.90;;;;;;5035871;28;20055;-79
2022/03/24 06:26:58;;;;;;;106.30;69.38;;;5.60;99.90;;;;;;5034773;28;20037;-80
2022/03/24 06:29:24;;;;;;;112.30;72.82;;;5.60;99.90;;;;;;5035035;28;20045;-81
2022/03/24 06:31:50;;;;;;;103.47;67.45;;;5.60;99.90;;;;;;5035367;28;20033;-80
2022/03/24 06:34:16;;;;;;;108.55;70.43;;;5.70;99.90;;;;;;5034530;28;20033;-79
2022/03/24 06:36:42;;;;;;;105.72;66.95;;;5.70;99.90;;;;;;5035957;28;20451;-80
2022/03/24 06:39:08;;;;;;;105.28;68.75;;;5.80;99.90;;;;;;5057605;28;20045;-80
2022/03/24 06:41:34;;;;;;;101.35;64.43;;;5.80;99.90;;;;;;5057942;28;20443;-81
2022/03/24 06:44:00;;;;;;;99.13;65.75;;;5.80;99.90;;;;;;5075265;28;20111;-81
2022/03/24 06:46:27;;;;;;;105.15;67.88;;;5.90;99.90;;;;;;5057734;28;20494;-82
2022/03/24 06:48:53;;;;;;;97.53;66.32;;;5.90;99.90;;;;;;5057149;28;20127;-82
2022/03/24 06:51:19;;;;;;;106.60;67.90;;;6.00;99.90;;;;;;5075815;28;20349;-81
2022/03/24 06:53:45;;;;;;;99.47;63.90;;;6.00;99.90;;;;;;5040686;28;20040;-83
2022/03/24 06:56:10;;;;;;;102.53;67.55;;;6.10;99.90;;;;;;5040987;28;20045;-82
2022/03/24 06:58:36;;;;;;;116.03;73.68;;;6.10;99.90;;;;;;5057186;28;20347;-82
2022/03/24 07:01:02;;;;;;;110.03;72.53;;;6.30;99.90;;;;;;5057353;28;20079;-82
2022/03/24 07:03:27;;;;;;;118.82;76.35;;;6.30;99.90;;;;;;5057004;28;20047;-81
2022/03/24 07:05:53;;;;;;;125.35;78.72;;;6.40;99.90;;;;;;5040764;28;20131;-82
2022/03/24 07:08:19;;;;;;;130.65;80.90;;;6.50;99.90;;;;;;5057164;28;20117;-83
2022/03/24 07:10:44;;;;;;;126.93;79.65;;;6.60;99.90;;;;;;5057193;28;20100;-83
2022/03/24 07:13:10;;;;;;;133.63;81.20;;;6.60;99.90;;;;;;5074322;28;20051;-81
2022/03/24 07:15:36;;;;;;;133.27;81.18;;;6.70;99.90;;;;;;5040537;28;20047;-82
2022/03/24 07:18:01;;;;;;;135.75;85.75;;;6.80;99.90;;;;;;5074795;28;20119;-82
2022/03/24 07:20:27;;;;;;;147.90;91.70;;;6.80;99.90;;;;;;5057139;28;20115;-83
2022/03/24 07:22:53;;;;;;;143.38;88.10;;;6.90;99.90;;;;;;5052760;28;20040;-82
2022/03/24 07:25:18;;;;;;;143.82;89.88;;;7.00;99.90;;;;;;5057409;28;20354;-83
2022/03/24 07:27:44;;;;;;;140.15;87.32;;;7.00;99.90;;;;;;5056974;28;20041;-82
2022/03/24 07:30:11;;;;;;;135.15;87.70;;;7.10;99.90;;;;;;5074357;28;20044;-82
2022/03/24 07:32:37;;;;;;;142.18;92.40;;;7.20;99.90;;;;;;5074774;28;20036;-82
2022/03/24 07:35:04;;;;;;;136.50;89.68;;;7.20;99.90;;;;;;5045473;28;20076;-82
2022/03/24 07:37:30;;;;;;;141.23;86.97;;;7.30;99.90;;;;;;5062687;28;20139;-81
2022/03/24 07:39:56;;;;;;;138.70;86.97;;;7.40;99.90;;;;;;5044780;28;20347;-81
2022/03/24 07:42:22;;;;;;;139.73;88.97;;;7.40;99.90;;;;;;5059641;28;20047;-83
2022/03/24 07:44:48;;;;;;;134.27;87.90;;;7.50;99.90;;;;;;5043314;28;20048;-81
2022/03/24 07:47:14;;;;;;;130.73;83.63;;;7.60;99.90;;;;;;5058291;28;20032;-82
2022/03/24 07:49:40;;;;;;;132.40;87.32;;;7.70;99.90;;;;;;5057082;28;20046;-81
2022/03/24 07:52:13;;;;;;;131.77;86.22;;;7.70;99.90;;;;;;5074857;28;20033;-81
2022/03/24 07:54:56;;;;;;;138.07;88.75;;;7.80;99.90;;;;;;5074928;28;20078;-80
2022/03/24 07:57:22;;;;;;;126.00;80.65;;;7.90;99.90;;;;;;5074830;28;20083;-83
2022/03/24 07:59:48;;;;;;;125.03;81.65;;;8.00;99.90;;;;;;5056946;28;20037;-83
2022/03/24 08:02:14;;;;;;;120.85;81.35;;;8.00;99.90;;;;;;5057376;28;20123;-82
2022/03/24 08:04:39;;;;;;;126.43;79.45;;;8.10;99.90;;;;;;5056752;28;20036;-82
2022/03/24 08:07:05;;;;;;;113.90;78.47;;;8.20;99.90;;;;;;5057155;28;20048;-82
2022/03/24 08:09:31;;;;;;;118.45;76.68;;;8.30;99.90;;;;;;5054169;28;20055;-80
2022/03/24 08:11:57;;;;;;;119.03;76.75;;;8.30;99.90;;;;;;5040449;28;20123;-80
2022/03/24 08:14:22;;;;;;;110.13;73.45;;;8.40;99.90;;;;;;5056572;28;20048;-81
2022/03/24 08:16:48;;;;;;;109.70;72.45;;;8.40;99.90;;;;;;5057492;28;20036;-83
2022/03/24 08:19:14;;;;;;;112.78;74.10;;;8.60;99.90;;;;;;5057165;28;20041;-81
2022/03/24 08:21:40;;;;;;;112.35;71.22;;;8.60;99.90;;;;;;5056560;28;20044;-82
2022/03/24 08:24:06;;;;;;;102.53;68.60;;;8.70;99.90;;;;;;5057259;28;20040;-80
2022/03/24 08:26:33;;;;;;;110.10;71.45;;;8.70;99.90;;;;;;5053616;28;20045;-82
2022/03/24 08:28:59;;;;;;;103.05;68.78;;;8.80;99.90;;;;;;5056415;28;20055;-81
2022/03/24 08:31:25;;;;;;;100.68;65.53;;;8.90;99.90;;;;;;5057114;28;20036;-82
2022/03/24 08:33:50;;;;;;;100.03;66.65;;;8.90;99.90;;;;;;5056601;28;20389;-81
2022/03/24 08:36:16;;;;;;;99.28;67.20;;;9.00;99.90;;;;;;5056338;28;20045;-82
2022/03/24 08:38:41;;;;;;;97.60;65.75;;;9.10;99.90;;;;;;5022876;28;20044;-81
2022/03/24 08:41:08;;;;;;;89.13;61.78;;;9.20;99.90;;;;;;5040059;28;20051;-82
2022/03/24 08:43:33;;;;;;;92.38;63.38;;;9.20;99.90;;;;;;5059113;28;20058;-82
2022/03/24 08:45:59;;;;;;;94.20;64.00;;;9.30;99.90;;;;;;5078165;28;20040;-81
2022/03/24 08:48:25;;;;;;;97.28;65.72;;;9.50;99.90;;;;;;5060474;28;20028;-82
2022/03/24 08:50:50;;;;;;;93.05;63.47;;;9.60;99.90;;;;;;5059936;28;20039;-82
2022/03/24 08:53:16;;;;;;;91.88;62.90;;;9.70;99.90;;;;;;5060424;28;20052;-81
2022/03/24 08:55:42;;;;;;;87.60;60.35;;;9.80;99.90;;;;;;5060328;28;20047;-82
2022/03/24 08:58:08;;;;;;;71.35;51.28;;;9.80;99.90;;;;;;5074161;28;20045;-81
2022/03/24 09:00:34;;;;;;;76.18;54.28;;;9.90;99.90;;;;;;5043136;28;20040;-81
2022/03/24 09:03:00;;;;;;;77.85;53.15;;;9.90;99.90;;;;;;5059715;28;20378;-80
2022/03/24 09:05:26;;;;;;;80.28;53.42;;;10.00;99.90;;;;;;5077527;28;20032;-81
2022/03/24 09:07:52;;;;;;;78.90;52.17;;;10.10;99.90;;;;;;5077349;28;20040;-82
2022/03/24 09:10:18;;;;;;;76.88;53.97;;;10.20;99.90;;;;;;5043245;28;20056;-82
2022/03/24 09:12:46;;;;;;;78.90;52.80;;;10.20;99.90;;;;;;5077008;28;20055;-82
2022/03/24 09:15:14;;;;;;;78.10;54.22;;;10.30;99.90;;;;;;5060418;28;20044;-80
2022/03/24 09:17:40;;;;;;;71.15;49.65;;;10.40;99.90;;;;;;5028175;28;20051;-81
2022/03/24 09:20:11;;;;;;;72.88;51.28;;;10.40;99.90;;;;;;5027170;28;20135;-82
2022/03/24 09:22:38;;;;;;;79.55;51.47;;;10.60;99.90;;;;;;5060021;28;20072;-81
2022/03/24 09:25:04;;;;;;;70.78;51.30;;;10.70;99.90;;;;;;5054757;28;20040;-82
2022/03/24 09:27:30;;;;;;;69.18;48.58;;;10.80;99.90;;;;;;5058861;28;20435;-82
2022/03/24 09:29:56;;;;;;;71.40;52.03;;;10.90;99.90;;;;;;5060242;28;20044;-82
2022/03/24 09:32:22;;;;;;;71.78;51.33;;;10.90;99.90;;;;;;5059167;28;20033;-81
2022/03/24 09:34:47;;;;;;;74.93;53.70;;;11.00;99.90;;;;;;5059594;28;20046;-81
2022/03/24 09:37:17;;;;;;;76.05;54.38;;;11.10;99.90;;;;;;5059258;28;20045;-83
2022/03/24 09:39:43;;;;;;;79.03;54.00;;;11.20;99.90;;;;;;5059228;28;20131;-81
2022/03/24 09:42:08;;;;;;;72.10;51.47;;;11.30;99.90;;;;;;5076432;28;20052;-81
2022/03/24 09:44:34;;;;;;;75.15;52.83;;;11.30;99.90;;;;;;5059020;28;20146;-80
2022/03/24 09:47:00;;;;;;;71.63;51.13;;;11.40;99.90;;;;;;5059020;28;20033;-83
2022/03/24 09:49:26;;;;;;;69.78;49.33;;;11.50;99.90;;;;;;5042693;28;20040;-83
2022/03/24 09:51:52;;;;;;;68.07;48.15;;;11.40;99.90;;;;;;5058867;28;20036;-81
2022/03/24 09:54:18;;;;;;;63.92;47.20;;;11.40;99.90;;;;;;5073232;28;20041;-81
2022/03/24 09:56:43;;;;;;;67.90;46.85;;;11.40;99.90;;;;;;5076309;28;20040;-81
2022/03/24 09:59:09;;;;;;;63.13;43.20;;;11.50;99.90;;;;;;5076416;28;20048;-83
2022/03/24 10:01:39;;;;;;;58.00;43.90;;;11.60;99.90;;;;;;5076347;28;20094;-83
2022/03/24 10:04:07;;;;;;;68.13;50.35;;;11.60;99.90;;;;;;5042406;28;20400;-82
2022/03/24 10:06:35;;;;;;;66.22;48.22;;;11.80;99.90;;;;;;5058817;28;20055;-82
2022/03/24 10:09:01;;;;;;;68.00;47.85;;;11.80;99.90;;;;;;5042025;28;20465;-82
2022/03/24 10:11:27;;;;;;;64.45;47.13;;;11.90;99.90;;;;;;5076663;28;20048;-80
2022/03/24 10:13:55;;;;;;;69.00;46.38;;;11.90;99.90;;;;;;5058508;28;20044;-81
2022/03/24 10:16:33;;;;;;;65.13;43.78;;;11.90;99.90;;;;;;5058564;28;20434;-82
2022/03/24 10:19:05;;;;;;;59.53;45.92;;;11.90;99.90;;;;;;5076056;28;20044;-82
2022/03/24 10:21:34;;;;;;;65.72;46.92;;;11.90;99.90;;;;;;5041448;28;20036;-82
2022/03/24 10:24:08;;;;;;;60.88;45.45;;;12.00;99.90;;;;;;5058279;28;20087;-81
2022/03/24 10:26:50;;;;;;;69.35;50.90;;;12.10;99.90;;;;;;5042102;28;20405;-80
2022/03/24 10:29:21;;;;;;;68.00;50.00;;;12.10;99.90;;;;;;5075755;28;20454;-82
2022/03/24 10:31:59;;;;;;;68.15;51.13;;;12.30;99.90;;;;;;5041803;28;20036;-81
2022/03/24 10:34:35;;;;;;;73.45;53.03;;;12.30;99.90;;;;;;5058331;28;20044;-80
2022/03/24 10:37:19;;;;;;;74.05;52.00;;;12.40;99.90;;;;;;5037973;28;20085;-81
2022/03/24 10:40:10;;;;;;;74.20;52.45;;;12.40;99.90;;;;;;5055179;28;20041;-82
2022/03/24 10:42:40;;;;;;;75.45;54.90;;;12.40;99.90;;;;;;5054383;28;20043;-81
2022/03/24 10:45:20;;;;;;;70.53;51.78;;;12.50;99.90;;;;;;5038995;28;20048;-80
2022/03/24 10:48:02;;;;;;;70.10;50.42;;;12.50;99.90;;;;;;5054584;28;20041;-82
2022/03/24 10:50:29;;;;;;;73.93;52.60;;;12.50;99.90;;;;;;5054895;28;20052;-84
2022/03/24 10:53:05;;;;;;;71.75;54.63;;;12.60;99.90;;;;;;5054532;28;20505;-82
2022/03/24 10:55:44;;;;;;;74.20;50.85;;;12.60;99.90;;;;;;5054909;28;20146;-81
2022/03/24 10:58:14;;;;;;;72.93;53.20;;;12.70;99.90;;;;;;5054422;28;20045;-80
2022/03/24 11:00:41;;;;;;;73.95;55.70;;;12.80;99.90;;;;;;5054508;28;20422;-80
2022/03/24 11:03:07;;;;;;;78.80;56.53;;;12.80;99.90;;;;;;5054019;28;20474;-81
2022/03/24 11:05:33;;;;;;;77.97;57.58;;;12.80;99.90;;;;;;5054266;28;20080;-81
2022/03/24 11:07:59;;;;;;;72.20;54.03;;;12.90;99.90;;;;;;5054640;28;20055;-81
2022/03/24 11:10:25;;;;;;;72.28;54.05;;;12.90;99.90;;;;;;5054927;28;20358;-83
2022/03/24 11:12:55;;;;;;;74.25;52.55;;;12.90;99.90;;;;;;5054016;28;20041;-82
2022/03/24 11:15:21;;;;;;;71.03;52.92;;;13.00;99.90;;;;;;5037334;28;20106;-81
2022/03/24 11:17:47;;;;;;;69.32;50.95;;;13.00;99.90;;;;;;5054118;28;20336;-81
2022/03/24 11:20:13;;;;;;;66.35;48.22;;;13.00;99.90;;;;;;5055113;28;20056;-83
2022/03/24 11:23:00;;;;;;;71.38;50.47;;;13.10;99.90;;;;;;5054972;28;20048;-82
2022/03/24 11:25:28;;;;;;;70.43;52.65;;;13.10;99.90;;;;;;5037360;28;20451;-80
2022/03/24 11:27:55;;;;;;;70.00;51.80;;;13.20;99.90;;;;;;5054828;28;20032;-82
2022/03/24 11:30:22;;;;;;;73.63;52.90;;;13.20;99.90;;;;;;5053905;28;20045;-81
2022/03/24 11:32:50;;;;;;;67.40;49.70;;;13.30;99.90;;;;;;5054329;28;20045;-82
2022/03/24 11:35:16;;;;;;;65.43;49.90;;;13.40;99.90;;;;;;5058193;28;20056;-82
2022/03/24 11:37:42;;;;;;;69.05;47.88;;;13.50;99.90;;;;;;5074787;28;20123;-82
2022/03/24 11:40:19;;;;;;;70.55;47.30;;;13.50;99.90;;;;;;5074753;28;20040;-80
2022/03/24 11:42:50;;;;;;;64.43;47.58;;;13.50;99.90;;;;;;5057185;28;20355;-82
2022/03/24 11:45:41;;;;;;;65.80;47.42;;;13.60;99.90;;;;;;5074489;28;20036;-81
2022/03/24 11:48:12;;;;;;;64.85;45.65;;;13.60;99.90;;;;;;5043236;28;20049;-82
2022/03/24 11:50:52;;;;;;;67.47;47.55;;;13.60;99.90;;;;;;5074549;28;20047;-82
2022/03/24 11:53:29;;;;;;;62.17;44.85;;;13.80;99.90;;;;;;5074642;28;20072;-82
2022/03/24 11:56:01;;;;;;;66.80;47.58;;;13.90;99.90;;;;;;5074772;28;20098;-82
2022/03/24 11:58:34;;;;;;;65.93;44.72;;;13.90;99.90;;;;;;5074625;28;20040;-81
2022/03/24 12:01:17;;;;;;;56.40;42.70;;;13.90;99.90;;;;;;5056662;28;20063;-82
2022/03/24 12:04:00;;;;;;;62.25;42.80;;;14.00;99.90;;;;;;5056864;28;20517;-81
2022/03/24 12:06:41;;;;;;;58.30;43.42;;;14.00;99.90;;;;;;5040568;28;20485;-82
2022/03/24 12:09:12;;;;;;;59.85;43.65;;;14.10;99.90;;;;;;5040742;28;20044;-81
2022/03/24 12:11:41;;;;;;;58.90;42.28;;;14.20;99.90;;;;;;5054681;28;20339;-80
2022/03/24 12:14:32;;;;;;;56.90;41.00;;;14.20;99.90;;;;;;5040646;28;20106;-80
2022/03/24 12:17:30;;;;;;;58.90;42.20;;;14.30;99.90;;;;;;5076099;28;20045;-81
2022/03/24 12:19:57;;;;;;;56.72;41.58;;;14.40;99.90;;;;;;5060463;28;20055;-83
2022/03/24 12:22:26;;;;;;;57.50;41.75;;;14.40;99.90;;;;;;5044336;28;20447;-82
2022/03/24 12:24:52;;;;;;;55.17;39.92;;;14.50;99.90;;;;;;5060399;28;20123;-83
2022/03/24 12:27:18;;;;;;;56.38;40.03;;;14.60;99.90;;;;;;5060416;28;20036;-84
2022/03/24 12:30:09;;;;;;;65.97;42.25;;;14.60;99.90;;;;;;5060097;28;20098;-82
2022/03/24 12:32:35;;;;;;;66.85;45.75;;;14.70;99.90;;;;;;5043994;28;20319;-81
2022/03/24 12:35:01;;;;;;;69.55;44.83;;;14.80;99.90;;;;;;5077974;28;20047;-83